Time;durP1;ratioP1;P1;durP2;ratioP2;P2;SDS_P1;SDS_P2;PMS_P1;PMS_P2;Temp;Humidity;BMP_temperature;BMP_pressure;BME280_temperature;BME280_humidity;BME280_pressure;Samples;Min_cycle;Max_cycle;Signal;HPM_P1;HPM_P2
2024/01/03 00:00:35;;;;;;;;;;;;;;;16.39;48.77;100654.66;5074604;28;1911;-57
2024/01/03 00:03:01;;;;;;;;;;;;;;;16.05;49.53;100653.28;5057346;28;2548;-57
2024/01/03 00:05:36;;;;;;;;;;;;;;;15.72;50.11;100652.66;5062278;28;1004;-58
2024/01/03 00:08:03;;;;;;;;;;;;;;;15.58;50.61;100651.50;5065949;28;1295;-58
2024/01/03 00:10:41;;;;;;;;;;;;;;;17.13;47.11;100641.34;5041008;28;1036;-57
2024/01/03 00:13:25;;;;;;;;;;;;;;;17.38;45.86;100643.16;5071035;28;976;-57
2024/01/03 00:16:00;;;;;;;;;;;;;;;16.29;48.91;100638.19;5062773;28;1141;-57
2024/01/03 00:18:38;;;;;;;;;;;;;;;15.95;49.74;100636.81;5075236;28;1039;-57
2024/01/03 00:21:08;;;;;;;;;;;;;;;15.63;50.26;100650.72;5075473;28;1102;-56
2024/01/03 00:23:38;;;;;;;;;;;;;;;15.71;50.63;100641.94;5061816;28;993;-57
2024/01/03 00:26:09;;;;;;;;;;;;;;;17.26;46.48;100623.44;5056782;28;1051;-57
2024/01/03 00:28:35;;;;;;;;;;;;;;;16.86;47.38;100630.72;5061812;28;1054;-57
2024/01/03 00:31:01;;;;;;;;;;;;;;;16.08;49.10;100638.19;5045453;28;1112;-57
2024/01/03 00:33:26;;;;;;;;;;;;;;;15.77;49.87;100648.25;5056365;28;2436;-57
2024/01/03 00:35:52;;;;;;;;;;;;;;;16.58;48.17;100653.00;5074709;28;1028;-57
2024/01/03 00:38:18;;;;;;;;;;;;;;;17.64;45.66;100658.69;5045384;28;1099;-57
2024/01/03 00:40:46;;;;;;;;;;;;;;;16.54;48.19;100654.63;5066385;28;2016;-58
2024/01/03 00:43:12;;;;;;;;;;;;;;;16.03;49.32;100647.25;5074848;28;1047;-57
2024/01/03 00:45:37;;;;;;;;;;;;;;;15.73;49.96;100643.31;5075262;28;1103;-57
2024/01/03 00:48:03;;;;;;;;;;;;;;;16.41;48.72;100641.47;5053847;28;1134;-57
2024/01/03 00:50:28;;;;;;;;;;;;;;;17.64;45.50;100628.47;5042596;28;851;-58
2024/01/03 00:52:54;;;;;;;;;;;;;;;16.62;47.74;100625.81;5058535;28;1412;-57
2024/01/03 00:55:19;;;;;;;;;;;;;;;16.00;49.27;100630.50;5078693;28;1133;-57
2024/01/03 00:57:45;;;;;;;;;;;;;;;15.73;50.14;100620.56;5073979;28;1055;-57
2024/01/03 01:00:11;;;;;;;;;;;;;;;15.59;50.26;100624.94;5040760;28;1918;-57
2024/01/03 01:02:37;;;;;;;;;;;;;;;16.98;46.98;100622.16;5072126;28;1823;-58
2024/01/03 01:05:02;;;;;;;;;;;;;;;17.57;45.48;100615.00;5061210;28;1234;-58
2024/01/03 01:07:28;;;;;;;;;;;;;;;16.46;48.25;100602.22;5064625;28;1051;-57
2024/01/03 01:09:53;;;;;;;;;;;;;;;15.99;49.24;100607.75;5060338;28;1417;-58
2024/01/03 01:12:21;;;;;;;;;;;;;;;15.72;49.86;100608.78;5064800;28;1079;-58
2024/01/03 01:14:46;;;;;;;;;;;;;;;16.08;49.17;100597.03;5048991;28;852;-58
2024/01/03 01:17:12;;;;;;;;;;;;;;;17.48;45.74;100592.00;5057926;28;1360;-57
2024/01/03 01:19:38;;;;;;;;;;;;;;;16.80;47.44;100585.13;5078092;28;1972;-57
2024/01/03 01:22:04;;;;;;;;;;;;;;;16.14;48.87;100584.16;5077908;28;984;-57
2024/01/03 01:24:30;;;;;;;;;;;;;;;15.77;49.70;100571.50;5063764;28;1068;-57
2024/01/03 01:26:55;;;;;;;;;;;;;;;15.59;50.27;100562.72;5077581;28;888;-58
2024/01/03 01:29:21;;;;;;;;;;;;;;;17.18;46.57;100566.31;5077573;28;1020;-58
2024/01/03 01:31:47;;;;;;;;;;;;;;;16.98;46.70;100562.56;5065896;28;1812;-58
2024/01/03 01:34:12;;;;;;;;;;;;;;;16.18;48.77;100569.59;5072270;28;1107;-58
2024/01/03 01:36:38;;;;;;;;;;;;;;;15.81;49.56;100569.88;5070422;28;1139;-57
2024/01/03 01:39:04;;;;;;;;;;;;;;;15.61;50.20;100570.66;5073648;28;1897;-57
2024/01/03 01:41:30;;;;;;;;;;;;;;;16.25;49.01;100572.06;5059819;28;1183;-56
2024/01/03 01:43:56;;;;;;;;;;;;;;;17.51;45.62;100570.25;5066657;28;1187;-57
2024/01/03 01:46:22;;;;;;;;;;;;;;;16.90;46.92;100569.47;5071016;28;1116;-57
2024/01/03 01:48:48;;;;;;;;;;;;;;;16.14;48.82;100560.28;5057815;28;1083;-57
2024/01/03 01:51:13;;;;;;;;;;;;;;;15.81;49.43;100564.41;5044561;28;1163;-57
2024/01/03 01:53:39;;;;;;;;;;;;;;;15.62;49.88;100561.34;5039588;28;1216;-56
2024/01/03 01:56:05;;;;;;;;;;;;;;;16.91;47.26;100551.91;5059492;28;1534;-56
2024/01/03 01:58:30;;;;;;;;;;;;;;;17.43;45.75;100544.19;5042156;28;1137;-56
2024/01/03 02:00:56;;;;;;;;;;;;;;;16.44;48.11;100555.84;5059344;28;1918;-57
2024/01/03 02:03:22;;;;;;;;;;;;;;;15.97;49.07;100548.78;5045877;28;2259;-57
2024/01/03 02:05:48;;;;;;;;;;;;;;;15.65;50.02;100547.91;5052951;28;1239;-56
2024/01/03 02:08:13;;;;;;;;;;;;;;;16.67;47.89;100528.88;5050311;28;1168;-56
2024/01/03 02:10:39;;;;;;;;;;;;;;;17.63;45.22;100523.16;5058784;28;1165;-57
2024/01/03 02:13:05;;;;;;;;;;;;;;;16.54;47.79;100519.31;5077174;28;1035;-57
2024/01/03 02:15:30;;;;;;;;;;;;;;;15.99;48.93;100522.72;5058468;28;1222;-57
2024/01/03 02:17:56;;;;;;;;;;;;;;;15.68;50.00;100530.09;5048205;28;1308;-57
2024/01/03 02:20:25;;;;;;;;;;;;;;;15.55;49.99;100520.50;5057110;28;1961;-57
2024/01/03 02:22:51;;;;;;;;;;;;;;;17.01;46.86;100515.31;5067967;28;1039;-57
2024/01/03 02:25:16;;;;;;;;;;;;;;;17.24;46.01;100522.03;5053802;28;1709;-57
2024/01/03 02:27:42;;;;;;;;;;;;;;;16.29;48.30;100518.28;5062287;28;952;-57
2024/01/03 02:30:08;;;;;;;;;;;;;;;15.88;49.28;100516.44;5043854;28;1127;-56
2024/01/03 02:32:34;;;;;;;;;;;;;;;15.62;49.83;100517.50;5051470;28;1824;-56
2024/01/03 02:35:00;;;;;;;;;;;;;;;16.48;48.05;100518.53;5069946;28;1088;-58
2024/01/03 02:37:25;;;;;;;;;;;;;;;17.69;45.25;100511.00;5058763;28;1523;-58
2024/01/03 02:39:51;;;;;;;;;;;;;;;16.80;47.07;100508.22;5055525;28;1910;-58
2024/01/03 02:42:16;;;;;;;;;;;;;;;16.18;48.41;100501.00;5076835;28;1143;-57
2024/01/03 02:44:42;;;;;;;;;;;;;;;15.84;49.61;100498.06;5062711;28;1099;-57
2024/01/03 02:47:08;;;;;;;;;;;;;;;15.58;49.96;100498.03;5076671;28;1054;-57
2024/01/03 02:49:34;;;;;;;;;;;;;;;16.54;47.80;100492.69;5072202;28;1102;-57
2024/01/03 02:52:00;;;;;;;;;;;;;;;17.72;44.93;100495.84;5056276;28;844;-58
2024/01/03 02:54:26;;;;;;;;;;;;;;;16.67;47.26;100495.94;5059696;28;1056;-58
2024/01/03 02:56:53;;;;;;;;;;;;;;;16.09;48.79;100497.22;5076559;28;1071;-58
2024/01/03 02:59:19;;;;;;;;;;;;;;;15.83;49.26;100493.69;5076021;28;1913;-57
2024/01/03 03:01:44;;;;;;;;;;;;;;;15.53;50.03;100501.59;5075629;28;1830;-57
2024/01/03 03:04:10;;;;;;;;;;;;;;;16.10;49.05;100514.47;5057553;28;872;-58
2024/01/03 03:06:36;;;;;;;;;;;;;;;17.49;45.51;100516.66;5056100;28;1129;-58
2024/01/03 03:09:01;;;;;;;;;;;;;;;16.95;46.53;100519.19;5056028;28;1227;-56
2024/01/03 03:11:27;;;;;;;;;;;;;;;16.24;48.38;100513.63;5065643;28;980;-59
2024/01/03 03:13:53;;;;;;;;;;;;;;;15.89;49.21;100514.50;5075440;28;1015;-58
2024/01/03 03:16:19;;;;;;;;;;;;;;;15.60;50.01;100515.03;5066656;28;901;-58
2024/01/03 03:18:45;;;;;;;;;;;;;;;15.79;49.58;100507.09;5075833;28;1075;-58
2024/01/03 03:21:10;;;;;;;;;;;;;;;17.29;45.93;100512.94;5075512;28;1114;-58
2024/01/03 03:23:36;;;;;;;;;;;;;;;17.04;46.38;100514.75;5075476;28;1119;-58
2024/01/03 03:26:03;;;;;;;;;;;;;;;16.17;48.35;100506.78;5065842;28;1102;-57
2024/01/03 03:28:28;;;;;;;;;;;;;;;15.84;49.14;100507.09;5069423;28;945;-56
2024/01/03 03:30:54;;;;;;;;;;;;;;;15.56;50.12;100500.22;5065913;28;1087;-57
2024/01/03 03:33:19;;;;;;;;;;;;;;;16.43;47.97;100486.41;5062103;28;2337;-58
2024/01/03 03:35:45;;;;;;;;;;;;;;;17.60;45.02;100482.50;5055565;28;1111;-58
2024/01/03 03:38:10;;;;;;;;;;;;;;;16.53;47.61;100479.25;5056129;28;971;-58
2024/01/03 03:40:36;;;;;;;;;;;;;;;16.02;48.91;100475.56;5075762;28;1984;-58
2024/01/03 03:43:02;;;;;;;;;;;;;;;15.65;49.77;100471.16;5072343;28;1178;-56
2024/01/03 03:45:27;;;;;;;;;;;;;;;15.52;50.22;100469.78;5065467;28;1035;-58
2024/01/03 03:47:53;;;;;;;;;;;;;;;16.73;47.38;100468.19;5058905;28;1095;-58
2024/01/03 03:50:18;;;;;;;;;;;;;;;17.57;45.04;100470.13;5065248;28;1147;-58
2024/01/03 03:52:44;;;;;;;;;;;;;;;16.61;47.18;100462.19;5075156;28;1047;-58
2024/01/03 03:55:11;;;;;;;;;;;;;;;16.00;48.78;100461.28;5065475;28;1047;-58
2024/01/03 03:57:37;;;;;;;;;;;;;;;15.78;49.34;100461.56;5072263;28;1063;-58
2024/01/03 04:00:05;;;;;;;;;;;;;;;16.12;48.88;100465.63;5047555;28;1985;-58
2024/01/03 04:02:37;;;;;;;;;;;;;;;17.57;45.31;100466.56;5065324;28;2385;-58
2024/01/03 04:05:03;;;;;;;;;;;;;;;16.60;47.36;100463.28;5055313;28;1103;-56
2024/01/03 04:07:31;;;;;;;;;;;;;;;16.06;48.57;100459.34;5072891;28;1143;-56
2024/01/03 04:09:57;;;;;;;;;;;;;;;15.74;49.54;100457.75;5075355;28;1046;-56
2024/01/03 04:12:22;;;;;;;;;;;;;;;15.53;49.95;100462.41;5070665;28;989;-57
2024/01/03 04:14:48;;;;;;;;;;;;;;;17.00;46.50;100466.97;5065963;28;996;-57
2024/01/03 04:17:14;;;;;;;;;;;;;;;17.51;45.01;100475.97;5061245;28;1119;-57
2024/01/03 04:19:40;;;;;;;;;;;;;;;16.54;47.28;100475.41;5072233;28;1986;-59
2024/01/03 04:22:06;;;;;;;;;;;;;;;16.04;48.60;100473.34;5066712;28;1508;-59
2024/01/03 04:24:31;;;;;;;;;;;;;;;15.66;49.49;100475.56;5078998;28;1047;-58
2024/01/03 04:26:57;;;;;;;;;;;;;;;16.82;47.15;100470.34;5075543;28;991;-58
2024/01/03 04:29:22;;;;;;;;;;;;;;;17.36;45.53;100468.66;5075189;28;985;-59
2024/01/03 04:31:48;;;;;;;;;;;;;;;16.31;47.73;100466.69;5077613;28;2402;-59
2024/01/03 04:34:14;;;;;;;;;;;;;;;15.88;48.78;100463.53;5041377;28;1117;-58
2024/01/03 04:36:39;;;;;;;;;;;;;;;15.71;49.31;100464.59;5068209;28;1187;-55
2024/01/03 04:39:05;;;;;;;;;;;;;;;17.13;46.33;100464.69;5071317;28;1975;-55
2024/01/03 04:41:31;;;;;;;;;;;;;;;17.09;45.77;100459.75;5078402;28;1066;-53
2024/01/03 04:43:56;;;;;;;;;;;;;;;16.22;47.89;100452.72;5079166;28;1055;-56
2024/01/03 04:46:22;;;;;;;;;;;;;;;15.91;48.95;100455.53;5078716;28;1030;-56
2024/01/03 04:48:47;;;;;;;;;;;;;;;15.68;49.50;100454.19;5078762;28;1049;-55
2024/01/03 04:51:14;;;;;;;;;;;;;;;17.12;46.36;100455.63;5077871;28;1071;-56
2024/01/03 04:53:40;;;;;;;;;;;;;;;17.04;45.98;100454.31;5077760;28;1255;-59
2024/01/03 04:56:06;;;;;;;;;;;;;;;16.19;47.92;100452.47;5065475;28;1146;-58
2024/01/03 04:58:31;;;;;;;;;;;;;;;15.82;48.88;100448.16;5078828;28;1070;-59
2024/01/03 05:00:57;;;;;;;;;;;;;;;15.65;49.49;100449.22;5072909;28;1906;-60
2024/01/03 05:03:22;;;;;;;;;;;;;;;15.71;49.25;100448.16;5068738;28;2344;-53
2024/01/03 05:05:48;;;;;;;;;;;;;;;17.28;45.83;100437.94;5077568;28;1023;-55
2024/01/03 05:08:15;;;;;;;;;;;;;;;17.16;45.64;100433.91;5073388;28;1108;-56
2024/01/03 05:10:40;;;;;;;;;;;;;;;16.29;47.93;100437.91;5077545;28;1028;-55
2024/01/03 05:13:07;;;;;;;;;;;;;;;15.89;48.85;100427.59;5071670;28;1011;-54
2024/01/03 05:15:32;;;;;;;;;;;;;;;15.65;49.57;100426.50;5072258;28;1132;-53
2024/01/03 05:17:58;;;;;;;;;;;;;;;15.70;49.50;100432.78;5070542;28;1062;-53
2024/01/03 05:20:23;;;;;;;;;;;;;;;17.27;45.78;100440.97;5077534;28;1909;-55
2024/01/03 05:22:49;;;;;;;;;;;;;;;16.80;46.68;100423.13;5071000;28;1324;-51
2024/01/03 05:25:14;;;;;;;;;;;;;;;17.69;45.33;100417.50;5072220;28;1071;-55
2024/01/03 05:27:40;;;;;;;;;;;;;;;16.77;47.14;100419.84;5073103;28;1387;-51
2024/01/03 05:30:06;;;;;;;;;;;;;;;16.20;48.09;100423.94;5068423;28;1162;-47
2024/01/03 05:32:31;;;;;;;;;;;;;;;15.94;47.62;100424.00;5069583;28;1863;-49
2024/01/03 05:34:57;;;;;;;;;;;;;;;16.26;47.98;100409.09;5077358;28;1055;-54
2024/01/03 05:37:23;;;;;;;;;;;;;;;17.03;46.89;100425.19;5074631;28;1097;-54
2024/01/03 05:39:48;;;;;;;;;;;;;;;16.16;47.86;100431.06;5068700;28;1901;-50
2024/01/03 05:42:14;;;;;;;;;;;;;;;17.60;45.94;100430.25;5068040;28;996;-54
2024/01/03 05:44:39;;;;;;;;;;;;;;;16.80;47.28;100409.38;5077383;28;1275;-55
2024/01/03 05:47:05;;;;;;;;;;;;;;;16.29;47.38;100392.06;5077593;28;1207;-55
2024/01/03 05:49:31;;;;;;;;;;;;;;;16.01;47.22;100397.09;5064244;28;1105;-54
2024/01/03 05:51:57;;;;;;;;;;;;;;;16.80;47.56;100410.19;5071430;28;1074;-54
2024/01/03 05:54:22;;;;;;;;;;;;;;;17.56;46.33;100415.44;5074983;28;1106;-54
2024/01/03 05:56:50;;;;;;;;;;;;;;;16.48;48.08;100416.97;5077794;28;1024;-53
2024/01/03 05:59:15;;;;;;;;;;;;;;;16.39;48.02;100413.97;5077650;28;1973;-54
2024/01/03 06:01:41;;;;;;;;;;;;;;;17.83;45.62;100389.34;5066804;28;2417;-54
2024/01/03 06:04:06;;;;;;;;;;;;;;;16.72;47.54;100405.31;5061675;28;1107;-55
2024/01/03 06:06:32;;;;;;;;;;;;;;;16.25;47.74;100412.94;5066887;28;1019;-52
2024/01/03 06:08:57;;;;;;;;;;;;;;;17.01;47.69;100408.19;5060811;28;1122;-54
2024/01/03 06:11:23;;;;;;;;;;;;;;;17.05;47.32;100405.69;5077111;28;865;-50
2024/01/03 06:13:51;;;;;;;;;;;;;;;16.47;47.57;100398.06;5073426;28;1120;-49
2024/01/03 06:16:16;;;;;;;;;;;;;;;17.93;45.92;100417.56;5060124;28;1039;-51
2024/01/03 06:18:42;;;;;;;;;;;;;;;16.83;47.68;100411.56;5074601;28;1124;-52
2024/01/03 06:21:11;;;;;;;;;;;;;;;16.45;47.39;100422.19;5065753;28;1993;-50
2024/01/03 06:23:37;;;;;;;;;;;;;;;16.22;46.64;100419.81;5070320;28;973;-51
2024/01/03 06:26:03;;;;;;;;;;;;;;;16.79;47.31;100424.22;5068223;28;984;-50
2024/01/03 06:28:28;;;;;;;;;;;;;;;17.63;46.55;100424.19;5068057;28;1000;-53
2024/01/03 06:30:54;;;;;;;;;;;;;;;16.63;47.71;100418.81;5067947;28;1102;-53
2024/01/03 06:33:19;;;;;;;;;;;;;;;16.28;47.33;100417.06;5067659;28;1829;-51
2024/01/03 06:35:45;;;;;;;;;;;;;;;16.17;46.49;100406.13;5065446;28;1206;-51
2024/01/03 06:38:11;;;;;;;;;;;;;;;17.08;47.49;100414.19;5072398;28;1286;-52
2024/01/03 06:40:36;;;;;;;;;;;;;;;16.74;48.27;100412.16;5060952;28;1909;-53
2024/01/03 06:43:02;;;;;;;;;;;;;;;16.22;47.70;100408.03;5073436;28;1203;-54
2024/01/03 06:45:27;;;;;;;;;;;;;;;17.81;46.35;100419.03;5076404;28;1015;-53
2024/01/03 06:47:53;;;;;;;;;;;;;;;16.74;48.13;100409.41;5075762;28;1046;-51
2024/01/03 06:50:18;;;;;;;;;;;;;;;16.37;47.63;100399.72;5067265;28;1046;-49
2024/01/03 06:52:44;;;;;;;;;;;;;;;16.60;47.59;100398.22;5064161;28;1024;-50
2024/01/03 06:55:10;;;;;;;;;;;;;;;17.51;46.92;100393.50;5067757;28;1126;-51
2024/01/03 06:57:35;;;;;;;;;;;;;;;16.53;47.94;100375.75;5067063;28;1219;-51
2024/01/03 07:00:01;;;;;;;;;;;;;;;16.21;47.54;100382.50;5071196;28;1909;-53
2024/01/03 07:02:26;;;;;;;;;;;;;;;17.60;46.86;100370.59;5070112;28;2329;-46
2024/01/03 07:04:52;;;;;;;;;;;;;;;16.90;47.70;100370.88;5066945;28;1162;-46
2024/01/03 07:07:17;;;;;;;;;;;;;;;16.41;47.77;100365.13;5068031;28;1015;-49
2024/01/03 07:09:43;;;;;;;;;;;;;;;16.23;46.94;100371.25;5051087;28;1101;-55
2024/01/03 07:12:09;;;;;;;;;;;;;;;17.29;47.24;100370.03;5061101;28;1059;-54
2024/01/03 07:14:35;;;;;;;;;;;;;;;17.53;46.89;100369.28;5071345;28;1111;-53
2024/01/03 07:17:00;;;;;;;;;;;;;;;16.64;47.92;100371.03;5068456;28;1301;-55
2024/01/03 07:19:26;;;;;;;;;;;;;;;16.47;48.03;100365.13;5071667;28;1905;-54
2024/01/03 07:21:51;;;;;;;;;;;;;;;17.36;47.21;100353.22;5076178;28;1051;-55
2024/01/03 07:24:17;;;;;;;;;;;;;;;16.53;48.02;100356.53;5075458;28;1497;-54
2024/01/03 07:26:42;;;;;;;;;;;;;;;16.99;48.18;100358.19;5064180;28;1043;-56
2024/01/03 07:29:08;;;;;;;;;;;;;;;17.12;47.71;100336.69;5073667;28;1234;-55
2024/01/03 07:31:34;;;;;;;;;;;;;;;16.60;47.75;100337.03;5064239;28;991;-53
2024/01/03 07:33:59;;;;;;;;;;;;;;;16.53;48.06;100344.75;5073584;28;2678;-50
2024/01/03 07:36:25;;;;;;;;;;;;;;;17.21;47.61;100337.72;5075815;28;1206;-55
2024/01/03 07:38:50;;;;;;;;;;;;;;;16.55;47.89;100340.63;5072543;28;1059;-54
2024/01/03 07:41:19;;;;;;;;;;;;;;;16.51;47.70;100344.19;5046248;28;1914;-52
2024/01/03 07:43:45;;;;;;;;;;;;;;;17.71;46.40;100348.47;5075600;28;1106;-56
2024/01/03 07:46:10;;;;;;;;;;;;;;;16.76;47.67;100352.28;5057407;28;1082;-56
2024/01/03 07:48:36;;;;;;;;;;;;;;;16.36;47.63;100347.88;5056129;28;1027;-55
2024/01/03 07:51:02;;;;;;;;;;;;;;;16.63;47.77;100355.66;5073825;28;1130;-54
2024/01/03 07:53:27;;;;;;;;;;;;;;;17.72;46.48;100347.38;5062504;28;1301;-52
2024/01/03 07:55:53;;;;;;;;;;;;;;;16.71;48.11;100344.09;5068443;28;1019;-54
2024/01/03 07:58:19;;;;;;;;;;;;;;;16.33;47.43;100345.69;5074003;28;1095;-55
2024/01/03 08:00:44;;;;;;;;;;;;;;;16.14;46.72;100342.75;5072077;28;1969;-54
2024/01/03 08:03:10;;;;;;;;;;;;;;;17.18;47.70;100347.34;5066201;28;2393;-55
2024/01/03 08:05:36;;;;;;;;;;;;;;;17.40;47.23;100349.63;5067460;28;1232;-55
2024/01/03 08:08:01;;;;;;;;;;;;;;;16.68;47.71;100343.84;5078265;28;1135;-56
2024/01/03 08:10:27;;;;;;;;;;;;;;;16.32;47.47;100336.63;5072790;28;1344;-55
2024/01/03 08:12:53;;;;;;;;;;;;;;;17.52;47.17;100340.97;5065626;28;1075;-53
2024/01/03 08:15:18;;;;;;;;;;;;;;;17.27;47.52;100340.09;5065893;28;1088;-55
2024/01/03 08:17:44;;;;;;;;;;;;;;;16.65;47.81;100338.91;5064406;28;1317;-57
2024/01/03 08:20:10;;;;;;;;;;;;;;;16.35;47.36;100341.53;5078843;28;1974;-55
2024/01/03 08:22:35;;;;;;;;;;;;;;;17.64;46.91;100334.25;5078637;28;983;-56
2024/01/03 08:25:01;;;;;;;;;;;;;;;17.38;47.31;100342.78;5078257;28;1345;-57
2024/01/03 08:27:26;;;;;;;;;;;;;;;16.77;47.55;100344.88;5078418;28;1295;-54
2024/01/03 08:29:52;;;;;;;;;;;;;;;16.48;47.25;100342.88;5071534;28;1398;-54
2024/01/03 08:32:18;;;;;;;;;;;;;;;16.89;47.84;100342.63;5069179;28;2292;-55
2024/01/03 08:34:47;;;;;;;;;;;;;;;17.36;47.18;100348.56;5078073;28;1390;-55
2024/01/03 08:37:12;;;;;;;;;;;;;;;16.61;47.79;100344.16;5076391;28;1396;-52
2024/01/03 08:39:38;;;;;;;;;;;;;;;16.53;47.56;100331.84;5075843;28;1902;-52
2024/01/03 08:42:04;;;;;;;;;;;;;;;17.81;46.67;100331.88;5060738;28;1279;-57
2024/01/03 08:44:30;;;;;;;;;;;;;;;16.76;48.18;100324.03;5064919;28;1107;-52
2024/01/03 08:46:55;;;;;;;;;;;;;;;16.45;47.65;100326.16;5078545;28;1003;-53
2024/01/03 08:49:21;;;;;;;;;;;;;;;16.66;47.85;100324.91;5078226;28;1126;-55
2024/01/03 08:51:48;;;;;;;;;;;;;;;17.31;47.42;100325.81;5070131;28;1131;-55
2024/01/03 08:54:16;;;;;;;;;;;;;;;16.64;47.92;100318.88;5068471;28;1005;-56
2024/01/03 08:56:42;;;;;;;;;;;;;;;16.34;47.28;100306.16;5069666;28;1347;-55
2024/01/03 08:59:07;;;;;;;;;;;;;;;17.04;47.94;100313.38;5070150;28;1906;-50
2024/01/03 09:01:35;;;;;;;;;;;;;;;17.60;46.83;100301.03;5068158;28;1293;-54
2024/01/03 09:04:01;;;;;;;;;;;;;;;16.66;48.16;100293.88;5061432;28;2515;-55
2024/01/03 09:06:27;;;;;;;;;;;;;;;16.38;47.72;100294.34;5069124;28;1276;-55
2024/01/03 09:08:54;;;;;;;;;;;;;;;17.94;46.34;100303.69;5072614;28;1146;-56
2024/01/03 09:11:23;;;;;;;;;;;;;;;16.88;48.00;100308.03;5068192;28;1350;-51
2024/01/03 09:13:49;;;;;;;;;;;;;;;16.50;47.52;100299.47;5078893;28;1019;-56
2024/01/03 09:16:18;;;;;;;;;;;;;;;16.38;46.77;100294.34;5078123;28;1087;-55
2024/01/03 09:18:45;;;;;;;;;;;;;;;17.48;47.22;100286.88;5073035;28;895;-52
2024/01/03 09:21:10;;;;;;;;;;;;;;;16.59;48.13;100286.81;5073255;28;1981;-49
2024/01/03 09:23:36;;;;;;;;;;;;;;;16.34;47.56;100285.06;5069771;28;1084;-51
2024/01/03 09:26:05;;;;;;;;;;;;;;;17.51;47.27;100267.84;5077350;28;1023;-57
2024/01/03 09:28:31;;;;;;;;;;;;;;;17.07;47.78;100268.88;5077632;28;1130;-53
2024/01/03 09:30:56;;;;;;;;;;;;;;;16.79;47.49;100259.47;5074069;28;1143;-52
2024/01/03 09:33:22;;;;;;;;;;;;;;;17.69;46.91;100260.78;5069304;28;2496;-55
2024/01/03 09:35:48;;;;;;;;;;;;;;;17.15;47.39;100259.16;5075694;28;1322;-56
2024/01/03 09:38:16;;;;;;;;;;;;;;;16.69;47.31;100252.97;5071970;28;1177;-55
2024/01/03 09:40:43;;;;;;;;;;;;;;;16.46;46.79;100253.69;5066911;28;1909;-54
2024/01/03 09:43:09;;;;;;;;;;;;;;;16.35;46.15;100256.50;5074977;28;909;-55
2024/01/03 09:45:34;;;;;;;;;;;;;;;17.36;47.19;100260.63;5077838;28;1007;-53
2024/01/03 09:48:00;;;;;;;;;;;;;;;17.03;48.17;100256.81;5059849;28;1187;-53
2024/01/03 09:50:25;;;;;;;;;;;;;;;16.55;47.72;100247.31;5077473;28;1130;-54
2024/01/03 09:52:52;;;;;;;;;;;;;;;16.34;47.15;100240.31;5077334;28;1120;-54
2024/01/03 09:55:18;;;;;;;;;;;;;;;17.08;47.72;100232.88;5048504;28;973;-53
2024/01/03 09:57:43;;;;;;;;;;;;;;;16.86;47.97;100232.50;5075427;28;1012;-54
2024/01/03 10:00:09;;;;;;;;;;;;;;;16.46;47.84;100221.56;5048185;28;1906;-52
2024/01/03 10:02:36;;;;;;;;;;;;;;;16.89;48.08;100210.00;5071431;28;2446;-58
2024/01/03 10:05:03;;;;;;;;;;;;;;;17.61;46.95;100193.53;5063896;28;1178;-63
2024/01/03 10:07:32;;;;;;;;;;;;;;;16.72;47.91;100183.75;5056786;28;1141;-54
2024/01/03 10:09:58;;;;;;;;;;;;;;;16.43;47.51;100191.97;5076651;28;1016;-54
2024/01/03 10:12:23;;;;;;;;;;;;;;;16.58;47.85;100196.50;5077140;28;1130;-56
2024/01/03 10:14:49;;;;;;;;;;;;;;;17.76;46.93;100191.69;5077128;28;1011;-56
2024/01/03 10:17:15;;;;;;;;;;;;;;;16.77;48.30;100193.84;5059389;28;1131;-57
2024/01/03 10:19:41;;;;;;;;;;;;;;;16.40;47.74;100178.81;5076727;28;1902;-54
2024/01/03 10:22:06;;;;;;;;;;;;;;;16.36;47.60;100183.25;5076618;28;1047;-53
2024/01/03 10:24:32;;;;;;;;;;;;;;;17.32;47.64;100174.38;5076149;28;1027;-51
2024/01/03 10:27:07;;;;;;;;;;;;;;;16.55;48.12;100186.09;5074432;28;1382;-56
2024/01/03 10:29:33;;;;;;;;;;;;;;;16.33;47.53;100167.34;5056522;28;1167;-52
2024/01/03 10:31:59;;;;;;;;;;;;;;;16.66;47.71;100162.13;5060279;28;1898;-54
2024/01/03 10:34:24;;;;;;;;;;;;;;;17.33;47.35;100156.75;5062543;28;1087;-53
2024/01/03 10:36:51;;;;;;;;;;;;;;;16.51;48.28;100143.84;5071567;28;1061;-53
2024/01/03 10:39:17;;;;;;;;;;;;;;;16.23;47.60;100144.38;5075594;28;1906;-46
2024/01/03 10:41:46;;;;;;;;;;;;;;;16.66;47.99;100160.22;5073768;28;1155;-55
2024/01/03 10:44:15;;;;;;;;;;;;;;;16.90;48.25;100160.28;5069237;28;1204;-56
2024/01/03 10:46:41;;;;;;;;;;;;;;;16.43;47.78;100151.59;5061159;28;1456;-56
2024/01/03 10:49:07;;;;;;;;;;;;;;;16.20;47.84;100146.84;5062899;28;1263;-56
2024/01/03 10:51:37;;;;;;;;;;;;;;;17.64;46.96;100133.53;5067415;28;1090;-54
2024/01/03 10:54:03;;;;;;;;;;;;;;;16.60;48.49;100142.94;5070774;28;1186;-52
2024/01/03 10:56:29;;;;;;;;;;;;;;;16.32;47.87;100141.03;5045065;28;1453;-56
2024/01/03 10:58:54;;;;;;;;;;;;;;;16.33;48.18;100132.50;5058671;28;1012;-55
2024/01/03 11:01:27;;;;;;;;;;;;;;;17.88;46.65;100136.22;5062711;28;1902;-55
2024/01/03 11:04:21;;;;;;;;;;;;;;;17.07;47.98;100131.53;5069238;28;2529;-55
2024/01/03 11:06:49;;;;;;;;;;;;;;;16.50;47.54;100134.00;5055513;28;1786;-53
2024/01/03 11:09:15;;;;;;;;;;;;;;;16.35;46.92;100124.78;5052974;28;1028;-51
2024/01/03 11:11:42;;;;;;;;;;;;;;;17.21;47.99;100123.41;5058340;28;1046;-55
2024/01/03 11:14:17;;;;;;;;;;;;;;;16.92;48.24;100124.28;5062704;28;1130;-52
2024/01/03 11:16:43;;;;;;;;;;;;;;;16.36;48.25;100118.19;5070218;28;1484;-50
2024/01/03 11:19:08;;;;;;;;;;;;;;;17.62;47.40;100115.41;5074953;28;1964;-51
2024/01/03 11:21:37;;;;;;;;;;;;;;;17.07;47.97;100107.63;5075932;28;1091;-54
2024/01/03 11:24:20;;;;;;;;;;;;;;;16.60;47.84;100100.97;5072777;28;1261;-52
2024/01/03 11:26:52;;;;;;;;;;;;;;;16.45;46.87;100090.13;5076074;28;1094;-53
2024/01/03 11:29:36;;;;;;;;;;;;;;;17.05;47.99;100096.09;5075639;28;1051;-51
2024/01/03 11:32:04;;;;;;;;;;;;;;;17.02;48.05;100090.38;5068936;28;1848;-53
2024/01/03 11:34:37;;;;;;;;;;;;;;;16.53;47.83;100075.78;5075493;28;1075;-52
2024/01/03 11:37:06;;;;;;;;;;;;;;;16.33;47.06;100077.63;5075205;28;1018;-52
2024/01/03 11:39:35;;;;;;;;;;;;;;;16.33;47.27;100072.13;5045217;28;1897;-51
2024/01/03 11:42:02;;;;;;;;;;;;;;;17.81;47.09;100067.03;5069927;28;1032;-50
2024/01/03 11:44:27;;;;;;;;;;;;;;;16.67;48.59;100059.44;5075179;28;1068;-53
2024/01/03 11:46:59;;;;;;;;;;;;;;;16.40;47.80;100056.16;5056504;28;1687;-52
2024/01/03 11:49:24;;;;;;;;;;;;;;;16.23;46.92;100064.81;5059188;28;1681;-53
2024/01/03 11:51:50;;;;;;;;;;;;;;;17.04;47.97;100055.19;5061441;28;1220;-50
2024/01/03 11:54:16;;;;;;;;;;;;;;;17.34;47.88;100053.97;5066256;28;1051;-54
2024/01/03 11:56:41;;;;;;;;;;;;;;;16.57;47.99;100057.63;5067553;28;1478;-51
2024/01/03 11:59:07;;;;;;;;;;;;;;;16.40;47.30;100053.41;5070099;28;1986;-50
2024/01/03 12:01:33;;;;;;;;;;;;;;;17.13;48.11;100052.63;5064875;28;1424;-53
2024/01/03 12:04:11;;;;;;;;;;;;;;;17.22;47.83;100046.19;5056630;28;2646;-52
2024/01/03 12:06:37;;;;;;;;;;;;;;;16.56;48.19;100045.84;5057456;28;1008;-53
2024/01/03 12:09:03;;;;;;;;;;;;;;;16.86;48.20;100043.84;5074836;28;1050;-52
2024/01/03 12:11:28;;;;;;;;;;;;;;;17.02;47.98;100047.25;5073730;28;1196;-49
2024/01/03 12:13:54;;;;;;;;;;;;;;;16.48;48.07;100051.97;5057424;28;1035;-57
2024/01/03 12:16:20;;;;;;;;;;;;;;;16.30;47.53;100049.94;5073616;28;1102;-57
2024/01/03 12:18:52;;;;;;;;;;;;;;;17.39;47.48;100053.06;5070482;28;1108;-57
2024/01/03 12:21:18;;;;;;;;;;;;;;;16.56;48.54;100045.00;5072576;28;1909;-58
2024/01/03 12:23:57;;;;;;;;;;;;;;;17.27;48.22;100042.53;5075282;28;1129;-58
2024/01/03 12:26:22;;;;;;;;;;;;;;;17.25;47.88;100042.00;5074966;28;1113;-57
2024/01/03 12:28:53;;;;;;;;;;;;;;;16.56;47.99;100040.38;5075102;28;1050;-57
2024/01/03 12:31:19;;;;;;;;;;;;;;;17.95;46.51;100045.94;5072412;28;1186;-56
2024/01/03 12:33:45;;;;;;;;;;;;;;;16.93;47.92;100043.53;5062395;28;2739;-59
2024/01/03 12:36:10;;;;;;;;;;;;;;;16.55;47.82;100044.22;5066524;28;1127;-57
2024/01/03 12:38:36;;;;;;;;;;;;;;;16.66;48.14;100049.56;5050529;28;1203;-55
2024/01/03 12:41:01;;;;;;;;;;;;;;;17.42;47.81;100055.25;5074550;28;1913;-57
2024/01/03 12:43:27;;;;;;;;;;;;;;;16.67;48.27;100065.75;5074614;28;907;-55